createdAt,value
2022-10-25T00:01:47.066Z,9.50
2022-10-25T00:04:14.942Z,10.95
2022-10-25T00:06:41.868Z,10.95
2022-10-25T00:09:08.601Z,9.07
2022-10-25T00:11:35.500Z,9.18
2022-10-25T00:14:05.067Z,7.28
2022-10-25T00:16:34.960Z,9.00
2022-10-25T00:19:01.559Z,7.65
2022-10-25T00:21:28.189Z,7.90
2022-10-25T00:23:55.193Z,6.95
2022-10-25T00:26:22.194Z,8.60
2022-10-25T00:28:49.165Z,8.18
2022-10-25T00:31:16.887Z,9.18
2022-10-25T00:33:45.026Z,8.63
2022-10-25T00:36:17.688Z,10.55
2022-10-25T00:38:45.979Z,7.10
2022-10-25T00:41:17.837Z,9.38
2022-10-25T00:43:49.821Z,8.60
2022-10-25T00:46:28.285Z,10.23
2022-10-25T00:49:08.388Z,8.05
2022-10-25T00:51:49.340Z,5.50
2022-10-25T00:56:56.217Z,7.47
2022-10-25T00:59:25.504Z,8.82
2022-10-25T01:01:53.994Z,8.55
2022-10-25T01:04:24.650Z,8.10
2022-10-25T01:06:52.806Z,9.15
2022-10-25T01:09:25.738Z,8.85
2022-10-25T01:11:52.614Z,7.53
2022-10-25T01:14:19.879Z,7.68
2022-10-25T01:17:13.070Z,10.50
2022-10-25T01:20:04.865Z,10.57
2022-10-25T01:22:40.199Z,9.07
2022-10-25T01:25:28.237Z,9.55
2022-10-25T01:28:19.738Z,4.43
2022-10-25T01:31:04.383Z,9.15
2022-10-25T01:33:36.738Z,7.53
2022-10-25T01:36:22.064Z,8.55
2022-10-25T01:38:51.725Z,7.88
2022-10-25T01:41:44.136Z,9.70
2022-10-25T01:44:39.550Z,9.25
2022-10-25T01:47:31.762Z,8.35
2022-10-25T01:50:03.851Z,10.57
2022-10-25T01:52:30.798Z,8.02
2022-10-25T01:54:57.350Z,12.45
2022-10-25T01:57:35.822Z,9.02
2022-10-25T02:00:08.301Z,6.43
2022-10-25T02:03:05.731Z,7.15
2022-10-25T02:05:32.231Z,10.48
2022-10-25T02:08:13.695Z,8.57
2022-10-25T02:11:08.976Z,9.25
2022-10-25T02:13:38.488Z,4.82
2022-10-25T02:16:18.948Z,6.93
2022-10-25T02:18:49.253Z,6.47
2022-10-25T02:21:17.434Z,9.52
2022-10-25T02:23:45.517Z,9.45
2022-10-25T02:26:14.060Z,7.28
2022-10-25T02:28:42.011Z,12.07
2022-10-25T02:31:13.937Z,6.20
2022-10-25T02:33:42.937Z,6.43
2022-10-25T02:36:14.364Z,5.95
2022-10-25T02:38:42.306Z,4.57
2022-10-25T02:41:09.213Z,7.00
2022-10-25T02:43:35.913Z,8.38
2022-10-25T02:46:10.775Z,6.20
2022-10-25T02:48:38.165Z,8.57
2022-10-25T02:51:05.991Z,7.28
2022-10-25T02:53:33.581Z,5.72
2022-10-25T02:56:05.836Z,5.65
2022-10-25T02:58:35.092Z,7.53
2022-10-25T03:01:02.008Z,8.70
2022-10-25T03:03:29.274Z,9.57
2022-10-25T03:05:56.212Z,5.82
2022-10-25T03:08:23.408Z,10.07
2022-10-25T03:10:50.759Z,11.13
2022-10-25T03:13:17.905Z,8.55
2022-10-25T03:15:45.631Z,7.57
2022-10-25T03:18:13.406Z,6.55
2022-10-25T03:20:40.403Z,8.77
2022-10-25T03:23:07.076Z,7.80
2022-10-25T03:25:33.765Z,10.35
2022-10-25T03:28:00.677Z,7.80
2022-10-25T03:30:28.939Z,10.52
2022-10-25T03:32:56.002Z,11.88
2022-10-25T03:35:22.972Z,5.45
2022-10-25T03:37:50.792Z,7.45
2022-10-25T03:40:18.428Z,11.60
2022-10-25T03:42:45.194Z,8.82
2022-10-25T03:45:12.115Z,11.23
2022-10-25T03:47:39.486Z,11.40
2022-10-25T03:50:06.734Z,6.47
2022-10-25T03:52:33.327Z,8.38
2022-10-25T03:54:59.895Z,7.03
2022-10-25T03:57:26.653Z,11.05
2022-10-25T03:59:53.245Z,6.35
2022-10-25T04:02:19.866Z,6.70
2022-10-25T04:04:46.425Z,7.93
2022-10-25T04:07:12.971Z,7.63
2022-10-25T04:09:39.600Z,10.07
2022-10-25T04:12:06.377Z,12.15
2022-10-25T04:14:32.973Z,8.10
2022-10-25T04:16:59.555Z,12.10
2022-10-25T04:19:26.125Z,10.82
2022-10-25T04:21:52.756Z,10.60
2022-10-25T04:24:19.496Z,8.57
2022-10-25T04:26:46.132Z,11.82
2022-10-25T04:29:12.757Z,6.63
2022-10-25T04:31:39.368Z,10.18
2022-10-25T04:34:06.043Z,10.80
2022-10-25T04:36:32.681Z,8.10
2022-10-25T04:38:59.665Z,8.35
2022-10-25T04:41:26.286Z,10.95
2022-10-25T04:43:53.069Z,6.47
2022-10-25T04:46:20.540Z,9.32
2022-10-25T04:48:47.224Z,12.95
2022-10-25T04:51:14.844Z,13.38
2022-10-25T04:53:41.434Z,10.57
2022-10-25T04:56:10.707Z,11.07
2022-10-25T04:58:37.870Z,9.85
2022-10-25T05:01:11.365Z,10.57
2022-10-25T05:03:38.073Z,10.02
2022-10-25T05:06:08.733Z,8.43
2022-10-25T05:08:35.644Z,11.45
2022-10-25T05:11:02.306Z,13.00
2022-10-25T05:13:34.980Z,15.40
2022-10-25T05:16:02.222Z,12.43
2022-10-25T05:18:29.909Z,11.93
2022-10-25T05:20:59.847Z,9.10
2022-10-25T05:23:27.663Z,9.60
2022-10-25T05:26:21.246Z,7.13
2022-10-25T05:28:49.589Z,6.53
2022-10-25T05:31:24.916Z,8.38
2022-10-25T05:33:54.088Z,9.05
2022-10-25T05:36:21.227Z,10.40
2022-10-25T05:38:47.897Z,10.43
2022-10-25T05:41:16.954Z,8.63
2022-10-25T05:43:44.734Z,10.75
2022-10-25T05:46:16.751Z,6.82
2022-10-25T05:48:48.360Z,9.85
2022-10-25T05:54:11.381Z,12.68
2022-10-25T05:56:38.369Z,8.65
2022-10-25T05:59:11.575Z,7.10
2022-10-25T06:01:44.439Z,8.65
2022-10-25T06:04:11.783Z,7.78
2022-10-25T06:06:40.105Z,8.93
2022-10-25T06:09:07.557Z,10.07
2022-10-25T06:11:34.796Z,5.45
2022-10-25T06:14:01.488Z,8.30
2022-10-25T06:16:28.518Z,6.40
2022-10-25T06:18:55.152Z,7.70
2022-10-25T06:21:24.526Z,7.97
2022-10-25T06:23:51.665Z,9.38
2022-10-25T06:26:21.613Z,9.50
2022-10-25T06:28:51.108Z,13.88
2022-10-25T06:31:19.124Z,7.20
2022-10-25T06:33:46.006Z,7.43
2022-10-25T06:36:21.370Z,9.75
2022-10-25T06:38:49.015Z,11.95
2022-10-25T06:41:24.892Z,7.03
2022-10-25T06:43:52.126Z,10.90
2022-10-25T06:46:24.481Z,7.03
2022-10-25T06:48:52.947Z,9.27
2022-10-25T06:51:20.419Z,11.32
2022-10-25T06:53:47.385Z,8.40
2022-10-25T06:56:15.109Z,8.25
2022-10-25T06:58:42.428Z,7.57
2022-10-25T07:01:14.719Z,9.00
2022-10-25T07:03:42.526Z,14.57
2022-10-25T07:06:11.741Z,8.23
2022-10-25T07:08:40.623Z,10.32
2022-10-25T07:11:08.828Z,13.30
2022-10-25T07:13:35.570Z,12.85
2022-10-25T07:16:10.519Z,8.77
2022-10-25T07:18:37.532Z,9.23
2022-10-25T07:21:05.875Z,13.38
2022-10-25T07:23:33.218Z,10.45
2022-10-25T07:26:00.283Z,13.43
2022-10-25T07:28:27.683Z,13.02
2022-10-25T07:30:54.385Z,7.93
2022-10-25T07:33:21.068Z,12.25
2022-10-25T07:36:06.107Z,9.82
2022-10-25T07:38:36.815Z,10.98
2022-10-25T07:41:03.709Z,13.07
2022-10-25T07:43:30.690Z,12.77
2022-10-25T07:45:57.653Z,7.82
2022-10-25T07:48:24.464Z,6.38
2022-10-25T07:50:51.590Z,11.68
2022-10-25T07:53:18.686Z,9.98
2022-10-25T07:55:57.499Z,9.93
2022-10-25T07:58:24.178Z,11.05
2022-10-25T08:00:50.861Z,12.57
2022-10-25T08:03:18.469Z,11.18
2022-10-25T08:05:46.979Z,17.42
2022-10-25T08:08:14.565Z,18.33
2022-10-25T08:10:44.623Z,15.45
2022-10-25T08:13:11.762Z,13.45
2022-10-25T08:15:40.712Z,10.25
2022-10-25T08:18:07.873Z,9.88
2022-10-25T08:20:56.790Z,15.88
2022-10-25T08:23:21.506Z,8.85
2022-10-25T08:25:48.095Z,11.73
2022-10-25T08:28:14.703Z,11.57
2022-10-25T08:30:41.889Z,13.50
2022-10-25T08:33:11.602Z,10.50
2022-10-25T08:35:38.721Z,9.07
2022-10-25T08:38:05.647Z,12.80
2022-10-25T08:40:58.020Z,15.18
2022-10-25T08:43:33.569Z,7.38
2022-10-25T08:46:02.476Z,10.13
2022-10-25T08:48:35.137Z,22.65
2022-10-25T08:51:11.189Z,12.55
2022-10-25T08:53:47.728Z,8.35
2022-10-25T08:56:17.995Z,8.70
2022-10-25T08:58:54.429Z,20.83
2022-10-25T09:01:27.071Z,16.02
2022-10-25T09:03:54.171Z,14.65
2022-10-25T09:06:35.871Z,7.47
2022-10-25T09:09:27.168Z,11.85
2022-10-25T09:12:18.657Z,17.63
2022-10-25T09:15:07.120Z,13.68
2022-10-25T09:17:49.972Z,10.13
2022-10-25T09:20:32.745Z,13.85
2022-10-25T09:23:25.246Z,16.95
2022-10-25T09:26:03.539Z,13.80
2022-10-25T09:28:48.666Z,9.60
2022-10-25T09:31:19.983Z,8.02
2022-10-25T09:33:48.842Z,7.80
2022-10-25T09:36:15.690Z,9.63
2022-10-25T09:38:59.585Z,11.20
2022-10-25T09:41:40.173Z,10.73
2022-10-25T09:44:25.976Z,11.65
2022-10-25T09:47:18.597Z,8.35
2022-10-25T09:50:00.592Z,7.22
2022-10-25T09:52:34.706Z,10.52
2022-10-25T09:55:16.540Z,6.47
2022-10-25T09:57:43.265Z,6.35
2022-10-25T10:00:14.114Z,9.07
2022-10-25T10:02:41.222Z,10.27
2022-10-25T10:05:19.888Z,7.53
2022-10-25T10:07:48.732Z,7.88
2022-10-25T10:10:24.892Z,6.53
2022-10-25T10:13:14.243Z,6.25
2022-10-25T10:16:18.091Z,10.48
2022-10-25T10:18:44.838Z,8.23
2022-10-25T10:21:11.463Z,8.82
2022-10-25T10:23:43.935Z,6.78
2022-10-25T10:26:22.429Z,9.80
2022-10-25T10:28:54.447Z,9.63
2022-10-25T10:31:21.245Z,10.25
2022-10-25T10:33:51.996Z,11.48
2022-10-25T10:36:36.763Z,7.53
2022-10-25T10:39:23.224Z,11.20
2022-10-25T10:42:04.537Z,15.35
2022-10-25T10:44:34.772Z,11.23
2022-10-25T10:47:10.812Z,7.97
2022-10-25T10:49:40.788Z,7.53
2022-10-25T10:52:30.329Z,12.73
2022-10-25T10:54:57.955Z,6.18
2022-10-25T10:57:33.928Z,11.95
2022-10-25T11:00:01.663Z,9.07
2022-10-25T11:02:41.115Z,8.45
2022-10-25T11:05:25.654Z,10.30
2022-10-25T11:08:01.098Z,8.85
2022-10-25T11:10:34.834Z,10.15
2022-10-25T11:13:22.770Z,7.93
2022-10-25T11:16:00.579Z,8.80
2022-10-25T11:19:08.489Z,9.32
2022-10-25T11:21:53.025Z,10.18
2022-10-25T11:24:33.305Z,5.80
2022-10-25T11:27:19.515Z,9.05
2022-10-25T11:29:46.121Z,6.45
2022-10-25T11:32:41.824Z,9.68
2022-10-25T11:35:52.715Z,9.95
2022-10-25T11:38:40.601Z,12.88
2022-10-25T11:41:23.675Z,11.27
2022-10-25T11:44:10.376Z,11.55
2022-10-25T11:46:43.105Z,10.18
2022-10-25T11:49:32.833Z,8.65
2022-10-25T11:52:02.164Z,8.48
2022-10-25T11:54:33.583Z,9.60
2022-10-25T11:57:28.015Z,9.05
2022-10-25T12:00:31.387Z,8.98
2022-10-25T12:03:03.916Z,8.10
2022-10-25T12:05:42.463Z,11.05
2022-10-25T12:08:15.046Z,11.23
2022-10-25T12:10:49.800Z,7.45
2022-10-25T12:13:27.727Z,8.43
2022-10-25T12:15:56.433Z,10.45
2022-10-25T12:18:35.093Z,10.15
2022-10-25T12:21:03.752Z,9.40
2022-10-25T12:23:43.966Z,6.72
2022-10-25T12:26:29.990Z,6.70
2022-10-25T12:29:00.540Z,10.60
2022-10-25T12:31:31.333Z,8.65
2022-10-25T12:34:19.967Z,7.47
2022-10-25T12:37:18.458Z,11.60
2022-10-25T12:39:46.680Z,6.75
2022-10-25T12:42:23.797Z,4.82
2022-10-25T12:45:18.231Z,6.72
2022-10-25T12:48:03.437Z,5.93
2022-10-25T12:50:45.043Z,8.02
2022-10-25T12:53:30.319Z,6.63
2022-10-25T12:56:13.619Z,8.85
2022-10-25T12:59:07.476Z,7.50
2022-10-25T13:01:39.867Z,8.95
2022-10-25T13:04:25.297Z,10.65
2022-10-25T13:06:52.757Z,8.10
2022-10-25T13:09:26.108Z,5.90
2022-10-25T13:12:08.975Z,6.22
2022-10-25T13:14:50.491Z,8.07
2022-10-25T13:17:17.539Z,7.30
2022-10-25T13:19:54.420Z,7.53
2022-10-25T13:22:39.229Z,5.78
2022-10-25T13:25:12.214Z,7.43
2022-10-25T13:27:40.353Z,13.68
2022-10-25T13:30:06.968Z,8.27
2022-10-25T13:32:41.772Z,6.82
2022-10-25T13:35:20.269Z,7.53
2022-10-25T13:37:49.459Z,6.13
2022-10-25T13:40:21.244Z,5.38
2022-10-25T13:42:57.130Z,4.10
2022-10-25T13:45:45.244Z,4.45
2022-10-25T13:48:14.843Z,5.00
2022-10-25T13:50:51.992Z,5.80
2022-10-25T13:53:24.262Z,7.75
2022-10-25T13:56:04.103Z,6.47
2022-10-25T13:58:32.237Z,5.22
2022-10-25T14:01:17.707Z,5.85
2022-10-25T14:03:51.743Z,7.22
2022-10-25T14:06:32.963Z,7.55
2022-10-25T14:09:34.815Z,7.60
2022-10-25T14:12:01.429Z,4.88
2022-10-25T14:14:36.101Z,6.90
2022-10-25T14:17:08.841Z,4.53
2022-10-25T14:19:43.706Z,6.43
2022-10-25T14:22:15.758Z,6.80
2022-10-25T14:24:45.234Z,6.13
2022-10-25T14:27:29.213Z,9.95
2022-10-25T14:30:28.080Z,8.32
2022-10-25T14:33:00.265Z,5.75
2022-10-25T14:35:37.309Z,7.78
2022-10-25T14:38:17.128Z,7.63
2022-10-25T14:40:55.331Z,3.47
2022-10-25T14:43:26.303Z,6.55
2022-10-25T14:46:00.609Z,8.32
2022-10-25T14:48:27.743Z,6.22
2022-10-25T14:50:56.900Z,9.45
2022-10-25T14:53:23.721Z,4.55
2022-10-25T14:56:02.145Z,4.07
2022-10-25T14:58:39.466Z,7.38
2022-10-25T15:01:06.958Z,6.55
2022-10-25T15:03:43.398Z,4.68
2022-10-25T15:06:11.854Z,6.30
2022-10-25T15:08:41.025Z,7.43
2022-10-25T15:11:13.617Z,8.18
2022-10-25T15:13:43.268Z,4.55
2022-10-25T15:16:36.454Z,5.65
2022-10-25T15:19:09.058Z,4.72
2022-10-25T15:21:50.593Z,6.45
2022-10-25T15:24:17.253Z,7.43
2022-10-25T15:27:01.577Z,6.50
2022-10-25T15:29:44.021Z,6.88
2022-10-25T15:32:22.914Z,5.68
2022-10-25T15:34:53.182Z,11.55
2022-10-25T15:37:21.983Z,6.53
2022-10-25T15:39:51.838Z,6.68
2022-10-25T15:42:19.253Z,8.35
2022-10-25T15:44:45.922Z,8.70
2022-10-25T15:47:33.265Z,7.63
2022-10-25T15:50:02.449Z,5.72
2022-10-25T15:52:29.079Z,6.47
2022-10-25T15:54:55.813Z,4.38
2022-10-25T15:57:22.515Z,7.25
2022-10-25T15:59:49.140Z,7.70
2022-10-25T16:02:20.016Z,12.27
2022-10-25T16:04:46.996Z,10.10
2022-10-25T16:07:14.673Z,7.22
2022-10-25T16:09:41.345Z,8.50
2022-10-25T16:12:12.007Z,9.80
2022-10-25T16:14:38.704Z,6.95
2022-10-25T16:17:05.346Z,7.05
2022-10-25T16:19:32.234Z,10.85
2022-10-25T16:21:59.591Z,9.60
2022-10-25T16:24:26.229Z,7.60
2022-10-25T16:26:52.968Z,7.85
2022-10-25T16:29:22.465Z,6.85
2022-10-25T16:31:49.092Z,6.40
2022-10-25T16:34:17.437Z,7.80
2022-10-25T16:36:48.349Z,9.43
2022-10-25T16:39:15.489Z,10.13
2022-10-25T16:41:44.547Z,9.23
2022-10-25T16:44:12.966Z,8.18
2022-10-25T16:46:40.269Z,11.18
2022-10-25T16:49:09.249Z,9.32
2022-10-25T16:51:37.053Z,13.43
2022-10-25T16:54:03.956Z,9.55
2022-10-25T16:56:30.847Z,10.60
2022-10-25T16:58:57.451Z,15.95
2022-10-25T17:01:38.934Z,14.00
2022-10-25T17:04:10.472Z,10.00
2022-10-25T17:06:41.820Z,11.90
2022-10-25T17:09:09.133Z,9.68
2022-10-25T17:11:36.309Z,7.10
2022-10-25T17:14:03.380Z,10.52
2022-10-25T17:16:30.130Z,8.82
2022-10-25T17:18:57.291Z,11.77
2022-10-25T17:21:24.054Z,11.93
2022-10-25T17:23:50.664Z,9.85
2022-10-25T17:26:17.594Z,10.25
2022-10-25T17:28:44.723Z,12.20
2022-10-25T17:31:13.552Z,9.50
2022-10-25T17:33:42.270Z,13.43
2022-10-25T17:36:10.465Z,9.75
2022-10-25T17:38:37.152Z,9.00
2022-10-25T17:41:04.242Z,8.00
2022-10-25T17:43:31.583Z,10.85
2022-10-25T17:46:02.728Z,9.40
2022-10-25T17:48:30.069Z,12.45
2022-10-25T17:51:13.205Z,9.73
2022-10-25T17:53:40.148Z,12.02
2022-10-25T17:56:19.817Z,15.77
2022-10-25T17:58:52.596Z,10.15
2022-10-25T18:01:25.621Z,10.73
2022-10-25T18:03:54.668Z,11.07
2022-10-25T18:08:56.983Z,12.90
2022-10-25T18:11:25.920Z,8.80
2022-10-25T18:13:55.205Z,13.90
2022-10-25T18:16:25.843Z,12.63
2022-10-25T18:18:54.861Z,14.65
2022-10-25T18:21:21.562Z,15.05
2022-10-25T18:23:48.166Z,15.07
2022-10-25T18:26:17.546Z,9.98
2022-10-25T18:28:44.464Z,11.02
2022-10-25T18:31:13.354Z,9.10
2022-10-25T18:33:42.349Z,10.38
2022-10-25T18:36:18.827Z,12.80
2022-10-25T18:38:49.959Z,10.65
2022-10-25T18:41:25.678Z,10.65
2022-10-25T18:43:54.241Z,11.20
2022-10-25T18:46:21.845Z,10.45
2022-10-25T18:48:52.970Z,9.88
2022-10-25T18:51:21.216Z,8.20
2022-10-25T18:53:48.329Z,8.85
2022-10-25T18:56:19.569Z,14.52
2022-10-25T18:58:48.589Z,9.98
2022-10-25T19:01:22.116Z,8.55
2022-10-25T19:03:48.813Z,10.30
2022-10-25T19:06:15.443Z,11.38
2022-10-25T19:08:42.933Z,12.40
2022-10-25T19:11:12.266Z,10.25
2022-10-25T19:13:40.027Z,14.40
2022-10-25T19:16:07.134Z,12.20
2022-10-25T19:18:35.861Z,20.17
2022-10-25T19:21:08.437Z,18.52
2022-10-25T19:23:36.172Z,19.73
2022-10-25T19:26:08.138Z,24.17
2022-10-25T19:28:35.191Z,24.15
2022-10-25T19:31:10.793Z,23.83
2022-10-25T19:33:37.622Z,16.60
2022-10-25T19:36:13.775Z,20.42
2022-10-25T19:38:40.869Z,17.10
2022-10-25T19:41:12.547Z,16.30
2022-10-25T19:43:39.235Z,17.85
2022-10-25T19:46:07.415Z,13.00
2022-10-25T19:48:34.308Z,12.32
2022-10-25T19:51:09.567Z,18.55
2022-10-25T19:53:36.424Z,13.02
2022-10-25T19:56:07.984Z,12.45
2022-10-25T19:58:35.561Z,14.75
2022-10-25T20:01:14.154Z,16.25
2022-10-25T20:03:41.521Z,17.92
2022-10-25T20:06:17.581Z,11.98
2022-10-25T20:08:47.282Z,15.93
2022-10-25T20:11:15.007Z,15.40
2022-10-25T20:13:41.591Z,12.88
2022-10-25T20:16:08.994Z,12.82
2022-10-25T20:18:37.958Z,20.40
2022-10-25T20:21:08.299Z,12.38
2022-10-25T20:23:35.473Z,10.85
2022-10-25T20:26:26.400Z,15.55
2022-10-25T20:28:57.359Z,17.67
2022-10-25T20:31:25.866Z,12.90
2022-10-25T20:33:54.225Z,17.15
2022-10-25T20:36:21.246Z,10.18
2022-10-25T20:38:48.075Z,11.85
2022-10-25T20:41:20.321Z,17.42
2022-10-25T20:43:49.657Z,14.98
2022-10-25T20:46:16.429Z,10.93
2022-10-25T20:48:43.461Z,11.23
2022-10-25T20:51:11.511Z,13.35
2022-10-25T20:53:42.705Z,11.77
2022-10-25T20:56:09.800Z,9.32
2022-10-25T20:58:36.413Z,11.32
2022-10-25T21:01:03.410Z,11.18
2022-10-25T21:03:31.160Z,18.77
2022-10-25T21:06:00.515Z,10.65
2022-10-25T21:08:27.205Z,10.80
2022-10-25T21:10:59.104Z,15.38
2022-10-25T21:13:27.277Z,10.57
2022-10-25T21:15:53.905Z,11.93
2022-10-25T21:18:20.901Z,12.82
2022-10-25T21:20:48.708Z,12.35
2022-10-25T21:23:15.290Z,11.20
2022-10-25T21:25:41.880Z,12.52
2022-10-25T21:28:09.153Z,14.55
2022-10-25T21:30:35.765Z,17.70
2022-10-25T21:33:05.444Z,16.17
2022-10-25T21:35:32.574Z,12.77
2022-10-25T21:37:59.194Z,15.18
2022-10-25T21:40:26.143Z,13.13
2022-10-25T21:42:52.724Z,12.48
2022-10-25T21:45:19.295Z,11.80
2022-10-25T21:47:46.086Z,11.85
2022-10-25T21:50:12.917Z,12.75
2022-10-25T21:52:39.477Z,10.15
2022-10-25T21:55:06.747Z,11.73
2022-10-25T21:57:33.313Z,12.32
2022-10-25T21:59:59.894Z,11.07
2022-10-25T22:02:26.595Z,10.82
2022-10-25T22:04:53.382Z,9.45
2022-10-25T22:07:19.967Z,15.85
2022-10-25T22:09:46.545Z,11.15
2022-10-25T22:12:13.100Z,11.00
2022-10-25T22:14:39.678Z,10.30
2022-10-25T22:17:06.272Z,11.07
2022-10-25T22:19:32.901Z,12.38
2022-10-25T22:21:59.499Z,12.55
2022-10-25T22:24:26.151Z,12.63
2022-10-25T22:26:53.013Z,8.40
2022-10-25T22:29:19.761Z,9.48
2022-10-25T22:31:46.337Z,11.25
2022-10-25T22:34:12.975Z,13.07
2022-10-25T22:36:41.223Z,10.73
2022-10-25T22:39:08.760Z,11.63
2022-10-25T22:41:35.368Z,10.30
2022-10-25T22:44:02.345Z,11.30
2022-10-25T22:46:34.681Z,10.82
2022-10-25T22:49:06.837Z,10.15
2022-10-25T22:51:33.536Z,10.60
2022-10-25T22:54:00.197Z,8.05
2022-10-25T22:56:28.967Z,10.50
2022-10-25T22:58:57.974Z,11.95
2022-10-25T23:01:30.086Z,9.23
2022-10-25T23:03:58.023Z,8.68
2022-10-25T23:06:33.809Z,8.73
2022-10-25T23:09:02.699Z,10.35
2022-10-25T23:11:32.206Z,9.60
2022-10-25T23:13:59.945Z,8.07
2022-10-25T23:16:27.248Z,8.45
2022-10-25T23:18:54.379Z,10.95
2022-10-25T23:21:26.129Z,7.32
2022-10-25T23:23:54.072Z,8.48
2022-10-25T23:26:25.090Z,12.52
2022-10-25T23:28:51.949Z,10.50
2022-10-25T23:31:18.791Z,10.85
2022-10-25T23:33:49.422Z,10.75
2022-10-25T23:36:19.370Z,10.18
2022-10-25T23:38:47.262Z,9.70
2022-10-25T23:41:14.441Z,8.63
2022-10-25T23:43:41.391Z,10.20
2022-10-25T23:46:09.057Z,13.00
2022-10-25T23:48:35.711Z,11.70
2022-10-25T23:51:04.521Z,11.77
2022-10-25T23:53:31.723Z,7.20
2022-10-25T23:55:58.685Z,8.98
2022-10-25T23:58:25.492Z,8.27
